sensor_id;sensor_type;location;lat;lon;timestamp;P1;durP1;ratioP1;P2;durP2;ratioP2
16820;SDS011;8527;49.740;6.604;2023-05-02T00:00:32;4.75;;;3.70;;
16820;SDS011;8527;49.740;6.604;2023-05-02T00:05:34;5.43;;;4.22;;
16820;SDS011;8527;49.740;6.604;2023-05-02T00:10:38;5.30;;;4.70;;
16820;SDS011;8527;49.740;6.604;2023-05-02T00:15:36;7.63;;;4.57;;
16820;SDS011;8527;49.740;6.604;2023-05-02T00:20:35;6.50;;;5.00;;
16820;SDS011;8527;49.740;6.604;2023-05-02T00:25:33;7.75;;;4.97;;
16820;SDS011;8527;49.740;6.604;2023-05-02T00:30:34;5.95;;;4.95;;
16820;SDS011;8527;49.740;6.604;2023-05-02T00:35:33;8.15;;;5.70;;
16820;SDS011;8527;49.740;6.604;2023-05-02T00:40:40;10.68;;;6.47;;
16820;SDS011;8527;49.740;6.604;2023-05-02T00:45:42;8.15;;;6.57;;
16820;SDS011;8527;49.740;6.604;2023-05-02T00:50:42;11.07;;;6.75;;
16820;SDS011;8527;49.740;6.604;2023-05-02T00:55:40;10.52;;;7.25;;
16820;SDS011;8527;49.740;6.604;2023-05-02T01:00:45;9.68;;;6.80;;
16820;SDS011;8527;49.740;6.604;2023-05-02T01:05:57;9.40;;;6.82;;
16820;SDS011;8527;49.740;6.604;2023-05-02T01:11:04;9.50;;;6.57;;
16820;SDS011;8527;49.740;6.604;2023-05-02T01:16:14;13.00;;;7.47;;
16820;SDS011;8527;49.740;6.604;2023-05-02T01:21:18;13.32;;;8.90;;
16820;SDS011;8527;49.740;6.604;2023-05-02T01:26:23;13.70;;;9.02;;
16820;SDS011;8527;49.740;6.604;2023-05-02T01:31:31;18.77;;;10.40;;
16820;SDS011;8527;49.740;6.604;2023-05-02T01:36:34;14.82;;;8.77;;
16820;SDS011;8527;49.740;6.604;2023-05-02T01:41:36;12.85;;;8.68;;
16820;SDS011;8527;49.740;6.604;2023-05-02T01:46:39;12.70;;;8.73;;
16820;SDS011;8527;49.740;6.604;2023-05-02T01:51:42;12.55;;;8.90;;
16820;SDS011;8527;49.740;6.604;2023-05-02T01:56:46;13.88;;;9.60;;
16820;SDS011;8527;49.740;6.604;2023-05-02T02:01:51;18.02;;;10.27;;
16820;SDS011;8527;49.740;6.604;2023-05-02T02:06:54;16.88;;;10.63;;
16820;SDS011;8527;49.740;6.604;2023-05-02T02:11:56;17.27;;;10.43;;
16820;SDS011;8527;49.740;6.604;2023-05-02T02:17:04;19.38;;;11.32;;
16820;SDS011;8527;49.740;6.604;2023-05-02T02:22:13;16.15;;;11.85;;
16820;SDS011;8527;49.740;6.604;2023-05-02T02:27:16;14.35;;;10.18;;
16820;SDS011;8527;49.740;6.604;2023-05-02T02:32:20;15.27;;;10.75;;
16820;SDS011;8527;49.740;6.604;2023-05-02T02:37:19;17.05;;;10.70;;
16820;SDS011;8527;49.740;6.604;2023-05-02T02:42:24;17.35;;;11.65;;
16820;SDS011;8527;49.740;6.604;2023-05-02T02:47:41;17.52;;;10.50;;
16820;SDS011;8527;49.740;6.604;2023-05-02T02:52:52;16.65;;;11.02;;
16820;SDS011;8527;49.740;6.604;2023-05-02T02:57:58;20.25;;;12.43;;
16820;SDS011;8527;49.740;6.604;2023-05-02T03:03:03;20.33;;;12.98;;
16820;SDS011;8527;49.740;6.604;2023-05-02T03:08:04;17.45;;;11.45;;
16820;SDS011;8527;49.740;6.604;2023-05-02T03:13:02;14.15;;;9.40;;
16820;SDS011;8527;49.740;6.604;2023-05-02T03:18:06;11.82;;;7.45;;
16820;SDS011;8527;49.740;6.604;2023-05-02T03:23:04;11.80;;;7.53;;
16820;SDS011;8527;49.740;6.604;2023-05-02T03:28:03;12.63;;;7.43;;
16820;SDS011;8527;49.740;6.604;2023-05-02T03:33:02;12.85;;;8.05;;
16820;SDS011;8527;49.740;6.604;2023-05-02T03:38:05;11.77;;;7.63;;
16820;SDS011;8527;49.740;6.604;2023-05-02T03:43:06;15.73;;;10.30;;
16820;SDS011;8527;49.740;6.604;2023-05-02T03:48:05;17.05;;;11.15;;
16820;SDS011;8527;49.740;6.604;2023-05-02T03:53:06;15.02;;;10.65;;
16820;SDS011;8527;49.740;6.604;2023-05-02T03:58:05;17.15;;;11.68;;
16820;SDS011;8527;49.740;6.604;2023-05-02T04:03:03;18.15;;;12.10;;
16820;SDS011;8527;49.740;6.604;2023-05-02T04:08:07;19.73;;;12.23;;
16820;SDS011;8527;49.740;6.604;2023-05-02T04:13:11;20.88;;;12.95;;
16820;SDS011;8527;49.740;6.604;2023-05-02T04:18:12;20.13;;;13.00;;
16820;SDS011;8527;49.740;6.604;2023-05-02T04:23:16;22.52;;;13.30;;
16820;SDS011;8527;49.740;6.604;2023-05-02T04:28:17;15.45;;;10.63;;
16820;SDS011;8527;49.740;6.604;2023-05-02T04:33:16;18.10;;;9.63;;
16820;SDS011;8527;49.740;6.604;2023-05-02T04:38:20;13.02;;;9.68;;
16820;SDS011;8527;49.740;6.604;2023-05-02T04:43:28;17.27;;;10.15;;
16820;SDS011;8527;49.740;6.604;2023-05-02T04:48:26;16.67;;;10.10;;
16820;SDS011;8527;49.740;6.604;2023-05-02T04:53:28;15.63;;;10.13;;
16820;SDS011;8527;49.740;6.604;2023-05-02T04:58:26;16.13;;;9.75;;
16820;SDS011;8527;49.740;6.604;2023-05-02T05:03:24;15.25;;;10.40;;
16820;SDS011;8527;49.740;6.604;2023-05-02T05:08:29;14.65;;;10.00;;
16820;SDS011;8527;49.740;6.604;2023-05-02T05:13:28;18.77;;;10.25;;
16820;SDS011;8527;49.740;6.604;2023-05-02T05:18:26;15.65;;;9.38;;
16820;SDS011;8527;49.740;6.604;2023-05-02T05:28:40;14.95;;;10.25;;
16820;SDS011;8527;49.740;6.604;2023-05-02T05:33:39;16.30;;;10.98;;
16820;SDS011;8527;49.740;6.604;2023-05-02T05:38:40;18.95;;;12.45;;
16820;SDS011;8527;49.740;6.604;2023-05-02T05:43:39;18.25;;;12.00;;
16820;SDS011;8527;49.740;6.604;2023-05-02T05:48:37;17.23;;;10.80;;
16820;SDS011;8527;49.740;6.604;2023-05-02T05:53:36;18.30;;;12.48;;
16820;SDS011;8527;49.740;6.604;2023-05-02T05:58:37;16.02;;;11.65;;
16820;SDS011;8527;49.740;6.604;2023-05-02T06:03:38;16.98;;;10.70;;
16820;SDS011;8527;49.740;6.604;2023-05-02T06:08:36;16.33;;;10.15;;
16820;SDS011;8527;49.740;6.604;2023-05-02T06:13:37;20.50;;;11.18;;
16820;SDS011;8527;49.740;6.604;2023-05-02T06:18:39;19.65;;;11.43;;
16820;SDS011;8527;49.740;6.604;2023-05-02T06:23:40;16.02;;;11.48;;
16820;SDS011;8527;49.740;6.604;2023-05-02T06:28:42;15.10;;;10.85;;
16820;SDS011;8527;49.740;6.604;2023-05-02T06:33:41;18.77;;;11.88;;
16820;SDS011;8527;49.740;6.604;2023-05-02T06:38:46;19.63;;;13.75;;
16820;SDS011;8527;49.740;6.604;2023-05-02T06:43:50;15.93;;;11.63;;
16820;SDS011;8527;49.740;6.604;2023-05-02T06:48:48;18.60;;;11.50;;
16820;SDS011;8527;49.740;6.604;2023-05-02T06:53:47;18.58;;;11.50;;
16820;SDS011;8527;49.740;6.604;2023-05-02T06:58:45;19.60;;;11.48;;
16820;SDS011;8527;49.740;6.604;2023-05-02T07:03:47;16.45;;;10.93;;
16820;SDS011;8527;49.740;6.604;2023-05-02T07:08:46;16.27;;;11.35;;
16820;SDS011;8527;49.740;6.604;2023-05-02T07:13:46;18.75;;;10.88;;
16820;SDS011;8527;49.740;6.604;2023-05-02T07:18:50;17.83;;;11.98;;
16820;SDS011;8527;49.740;6.604;2023-05-02T07:23:49;19.85;;;12.20;;
16820;SDS011;8527;49.740;6.604;2023-05-02T07:28:49;21.33;;;12.55;;
16820;SDS011;8527;49.740;6.604;2023-05-02T07:33:50;16.05;;;10.90;;
16820;SDS011;8527;49.740;6.604;2023-05-02T07:38:50;17.45;;;11.40;;
16820;SDS011;8527;49.740;6.604;2023-05-02T07:43:51;20.35;;;11.43;;
16820;SDS011;8527;49.740;6.604;2023-05-02T07:48:52;19.45;;;11.77;;
16820;SDS011;8527;49.740;6.604;2023-05-02T07:53:54;24.98;;;12.15;;
16820;SDS011;8527;49.740;6.604;2023-05-02T07:58:53;25.33;;;12.52;;
16820;SDS011;8527;49.740;6.604;2023-05-02T08:03:54;19.52;;;11.40;;
16820;SDS011;8527;49.740;6.604;2023-05-02T08:08:53;22.27;;;12.27;;
16820;SDS011;8527;49.740;6.604;2023-05-02T08:13:54;18.63;;;11.52;;
16820;SDS011;8527;49.740;6.604;2023-05-02T08:18:56;14.27;;;8.95;;
16820;SDS011;8527;49.740;6.604;2023-05-02T08:23:58;18.35;;;10.63;;
16820;SDS011;8527;49.740;6.604;2023-05-02T08:28:57;16.70;;;8.68;;
16820;SDS011;8527;49.740;6.604;2023-05-02T08:34:02;14.27;;;7.72;;
16820;SDS011;8527;49.740;6.604;2023-05-02T08:39:01;13.63;;;7.80;;
16820;SDS011;8527;49.740;6.604;2023-05-02T08:44:04;13.75;;;7.53;;
16820;SDS011;8527;49.740;6.604;2023-05-02T08:49:06;13.32;;;7.60;;
16820;SDS011;8527;49.740;6.604;2023-05-02T08:54:08;11.57;;;6.75;;
16820;SDS011;8527;49.740;6.604;2023-05-02T08:59:07;12.52;;;7.28;;
16820;SDS011;8527;49.740;6.604;2023-05-02T09:04:11;13.52;;;7.05;;
16820;SDS011;8527;49.740;6.604;2023-05-02T09:09:17;14.55;;;7.05;;
16820;SDS011;8527;49.740;6.604;2023-05-02T09:14:16;12.50;;;7.60;;
16820;SDS011;8527;49.740;6.604;2023-05-02T09:19:24;13.13;;;7.43;;
16820;SDS011;8527;49.740;6.604;2023-05-02T09:24:23;14.15;;;7.70;;
16820;SDS011;8527;49.740;6.604;2023-05-02T09:29:22;11.75;;;6.63;;
16820;SDS011;8527;49.740;6.604;2023-05-02T09:34:20;14.30;;;6.60;;
16820;SDS011;8527;49.740;6.604;2023-05-02T09:39:25;13.38;;;6.93;;
16820;SDS011;8527;49.740;6.604;2023-05-02T09:44:35;12.02;;;6.60;;
16820;SDS011;8527;49.740;6.604;2023-05-02T09:49:40;11.40;;;6.28;;
16820;SDS011;8527;49.740;6.604;2023-05-02T09:54:40;14.38;;;7.03;;
16820;SDS011;8527;49.740;6.604;2023-05-02T09:59:40;11.60;;;6.38;;
16820;SDS011;8527;49.740;6.604;2023-05-02T10:04:58;12.32;;;6.70;;
16820;SDS011;8527;49.740;6.604;2023-05-02T10:10:01;13.23;;;6.38;;
16820;SDS011;8527;49.740;6.604;2023-05-02T10:15:04;12.55;;;6.45;;
16820;SDS011;8527;49.740;6.604;2023-05-02T10:20:13;8.70;;;5.60;;
16820;SDS011;8527;49.740;6.604;2023-05-02T10:25:21;11.03;;;5.17;;
16820;SDS011;8527;49.740;6.604;2023-05-02T10:35:23;9.13;;;4.75;;
16820;SDS011;8527;49.740;6.604;2023-05-02T10:40:23;9.02;;;4.88;;
16820;SDS011;8527;49.740;6.604;2023-05-02T10:45:30;8.23;;;4.50;;
16820;SDS011;8527;49.740;6.604;2023-05-02T10:50:44;7.82;;;4.03;;
16820;SDS011;8527;49.740;6.604;2023-05-02T10:55:43;6.00;;;4.38;;
16820;SDS011;8527;49.740;6.604;2023-05-02T11:12:10;10.93;;;5.68;;
16820;SDS011;8527;49.740;6.604;2023-05-02T11:33:46;9.50;;;5.55;;
16820;SDS011;8527;49.740;6.604;2023-05-02T11:38:55;9.25;;;4.80;;
16820;SDS011;8527;49.740;6.604;2023-05-02T11:44:01;8.00;;;4.00;;
16820;SDS011;8527;49.740;6.604;2023-05-02T11:48:59;5.90;;;3.70;;
16820;SDS011;8527;49.740;6.604;2023-05-02T11:54:00;7.57;;;3.33;;
16820;SDS011;8527;49.740;6.604;2023-05-02T11:59:02;5.72;;;3.38;;
16820;SDS011;8527;49.740;6.604;2023-05-02T12:04:04;8.43;;;2.85;;
16820;SDS011;8527;49.740;6.604;2023-05-02T12:09:08;5.40;;;3.40;;
16820;SDS011;8527;49.740;6.604;2023-05-02T12:14:07;13.85;;;3.63;;
16820;SDS011;8527;49.740;6.604;2023-05-02T12:19:06;15.95;;;5.35;;
16820;SDS011;8527;49.740;6.604;2023-05-02T12:24:08;8.38;;;4.82;;
16820;SDS011;8527;49.740;6.604;2023-05-02T12:29:06;15.45;;;5.70;;
16820;SDS011;8527;49.740;6.604;2023-05-02T12:34:05;9.30;;;4.82;;
16820;SDS011;8527;49.740;6.604;2023-05-02T12:39:35;6.00;;;4.32;;
16820;SDS011;8527;49.740;6.604;2023-05-02T12:44:40;5.68;;;4.30;;
16820;SDS011;8527;49.740;6.604;2023-05-02T12:49:48;5.82;;;3.90;;
16820;SDS011;8527;49.740;6.604;2023-05-02T12:54:50;6.80;;;4.20;;
16820;SDS011;8527;49.740;6.604;2023-05-02T13:00:15;6.43;;;3.92;;
16820;SDS011;8527;49.740;6.604;2023-05-02T13:05:14;5.60;;;3.92;;
16820;SDS011;8527;49.740;6.604;2023-05-02T13:10:19;8.63;;;4.13;;
16820;SDS011;8527;49.740;6.604;2023-05-02T13:15:19;5.45;;;3.78;;
16820;SDS011;8527;49.740;6.604;2023-05-02T13:20:18;7.00;;;4.10;;
16820;SDS011;8527;49.740;6.604;2023-05-02T13:25:19;4.88;;;3.50;;
16820;SDS011;8527;49.740;6.604;2023-05-02T13:30:17;4.45;;;2.78;;
16820;SDS011;8527;49.740;6.604;2023-05-02T13:35:19;3.38;;;2.53;;
16820;SDS011;8527;49.740;6.604;2023-05-02T13:40:20;2.33;;;2.13;;
16820;SDS011;8527;49.740;6.604;2023-05-02T13:45:18;2.60;;;2.17;;
16820;SDS011;8527;49.740;6.604;2023-05-02T13:50:16;2.47;;;2.17;;
16820;SDS011;8527;49.740;6.604;2023-05-02T13:55:15;2.92;;;2.13;;
16820;SDS011;8527;49.740;6.604;2023-05-02T14:00:16;3.38;;;2.30;;
16820;SDS011;8527;49.740;6.604;2023-05-02T14:05:18;3.85;;;2.30;;
16820;SDS011;8527;49.740;6.604;2023-05-02T14:10:19;4.35;;;2.45;;
16820;SDS011;8527;49.740;6.604;2023-05-02T14:15:26;3.53;;;2.25;;
16820;SDS011;8527;49.740;6.604;2023-05-02T14:20:28;2.53;;;1.95;;
16820;SDS011;8527;49.740;6.604;2023-05-02T14:25:27;4.43;;;2.38;;
16820;SDS011;8527;49.740;6.604;2023-05-02T14:30:28;2.72;;;2.20;;
16820;SDS011;8527;49.740;6.604;2023-05-02T14:35:26;3.95;;;1.77;;
16820;SDS011;8527;49.740;6.604;2023-05-02T14:40:32;3.00;;;1.48;;
16820;SDS011;8527;49.740;6.604;2023-05-02T14:45:34;2.97;;;1.42;;
16820;SDS011;8527;49.740;6.604;2023-05-02T14:50:36;1.33;;;1.20;;
16820;SDS011;8527;49.740;6.604;2023-05-02T14:55:35;2.17;;;1.48;;
16820;SDS011;8527;49.740;6.604;2023-05-02T15:00:37;3.75;;;1.70;;
16820;SDS011;8527;49.740;6.604;2023-05-02T15:05:35;3.60;;;1.60;;
16820;SDS011;8527;49.740;6.604;2023-05-02T15:10:40;3.78;;;1.75;;
16820;SDS011;8527;49.740;6.604;2023-05-02T15:15:44;2.53;;;1.67;;
16820;SDS011;8527;49.740;6.604;2023-05-02T15:20:50;3.55;;;1.80;;
16820;SDS011;8527;49.740;6.604;2023-05-02T15:25:51;3.80;;;1.90;;
16820;SDS011;8527;49.740;6.604;2023-05-02T15:30:52;2.10;;;1.63;;
16820;SDS011;8527;49.740;6.604;2023-05-02T15:35:51;2.90;;;1.70;;
16820;SDS011;8527;49.740;6.604;2023-05-02T15:40:52;1.92;;;1.73;;
16820;SDS011;8527;49.740;6.604;2023-05-02T15:45:54;2.72;;;1.77;;
16820;SDS011;8527;49.740;6.604;2023-05-02T15:50:54;3.13;;;1.98;;
16820;SDS011;8527;49.740;6.604;2023-05-02T15:55:52;4.32;;;2.00;;
16820;SDS011;8527;49.740;6.604;2023-05-02T16:00:57;3.38;;;1.77;;
16820;SDS011;8527;49.740;6.604;2023-05-02T16:05:55;3.97;;;1.70;;
16820;SDS011;8527;49.740;6.604;2023-05-02T16:11:01;2.80;;;1.53;;
16820;SDS011;8527;49.740;6.604;2023-05-02T16:16:02;1.70;;;1.60;;
16820;SDS011;8527;49.740;6.604;2023-05-02T16:21:04;3.03;;;1.63;;
16820;SDS011;8527;49.740;6.604;2023-05-02T16:26:12;3.33;;;1.88;;
16820;SDS011;8527;49.740;6.604;2023-05-02T16:31:13;3.45;;;1.50;;
16820;SDS011;8527;49.740;6.604;2023-05-02T16:36:12;3.83;;;1.70;;
16820;SDS011;8527;49.740;6.604;2023-05-02T16:41:12;2.28;;;1.60;;
16820;SDS011;8527;49.740;6.604;2023-05-02T16:46:11;2.50;;;1.90;;
16820;SDS011;8527;49.740;6.604;2023-05-02T16:51:14;3.60;;;1.70;;
16820;SDS011;8527;49.740;6.604;2023-05-02T16:56:13;3.10;;;1.98;;
16820;SDS011;8527;49.740;6.604;2023-05-02T17:01:14;3.05;;;1.65;;
16820;SDS011;8527;49.740;6.604;2023-05-02T17:06:14;5.53;;;2.90;;
16820;SDS011;8527;49.740;6.604;2023-05-02T17:11:12;2.92;;;1.45;;
16820;SDS011;8527;49.740;6.604;2023-05-02T17:16:17;3.83;;;1.88;;
16820;SDS011;8527;49.740;6.604;2023-05-02T17:21:17;4.30;;;2.30;;
16820;SDS011;8527;49.740;6.604;2023-05-02T17:26:15;2.95;;;1.88;;
16820;SDS011;8527;49.740;6.604;2023-05-02T17:31:16;4.68;;;1.98;;
16820;SDS011;8527;49.740;6.604;2023-05-02T17:36:15;3.85;;;1.63;;
16820;SDS011;8527;49.740;6.604;2023-05-02T17:41:14;4.55;;;1.85;;
16820;SDS011;8527;49.740;6.604;2023-05-02T17:46:12;4.65;;;1.60;;
16820;SDS011;8527;49.740;6.604;2023-05-02T17:51:13;6.15;;;2.03;;
16820;SDS011;8527;49.740;6.604;2023-05-02T17:56:12;5.30;;;1.90;;
16820;SDS011;8527;49.740;6.604;2023-05-02T18:01:12;3.25;;;1.80;;
16820;SDS011;8527;49.740;6.604;2023-05-02T18:06:19;5.47;;;1.90;;
16820;SDS011;8527;49.740;6.604;2023-05-02T18:11:31;5.53;;;1.90;;
16820;SDS011;8527;49.740;6.604;2023-05-02T18:16:55;5.15;;;2.05;;
16820;SDS011;8527;49.740;6.604;2023-05-02T18:33:12;4.45;;;1.88;;
16820;SDS011;8527;49.740;6.604;2023-05-02T18:38:13;4.35;;;1.95;;
16820;SDS011;8527;49.740;6.604;2023-05-02T18:43:38;7.40;;;2.08;;
16820;SDS011;8527;49.740;6.604;2023-05-02T18:48:40;4.97;;;2.22;;
16820;SDS011;8527;49.740;6.604;2023-05-02T18:53:44;6.95;;;2.30;;
16820;SDS011;8527;49.740;6.604;2023-05-02T18:58:45;5.70;;;2.80;;
16820;SDS011;8527;49.740;6.604;2023-05-02T19:03:47;4.40;;;2.53;;
16820;SDS011;8527;49.740;6.604;2023-05-02T19:08:48;3.45;;;2.22;;
16820;SDS011;8527;49.740;6.604;2023-05-02T19:13:49;4.85;;;2.60;;
16820;SDS011;8527;49.740;6.604;2023-05-02T19:18:50;9.88;;;2.88;;
16820;SDS011;8527;49.740;6.604;2023-05-02T19:23:52;7.30;;;2.83;;
16820;SDS011;8527;49.740;6.604;2023-05-02T19:28:51;10.82;;;2.90;;
16820;SDS011;8527;49.740;6.604;2023-05-02T19:33:49;8.73;;;3.10;;
16820;SDS011;8527;49.740;6.604;2023-05-02T19:38:49;7.32;;;2.95;;
16820;SDS011;8527;49.740;6.604;2023-05-02T19:43:52;12.93;;;3.20;;
16820;SDS011;8527;49.740;6.604;2023-05-02T19:48:51;6.65;;;2.88;;
16820;SDS011;8527;49.740;6.604;2023-05-02T19:53:52;7.22;;;3.17;;
16820;SDS011;8527;49.740;6.604;2023-05-02T19:58:58;12.55;;;3.70;;
16820;SDS011;8527;49.740;6.604;2023-05-02T20:03:57;8.05;;;3.53;;
16820;SDS011;8527;49.740;6.604;2023-05-02T20:09:05;8.75;;;3.00;;
16820;SDS011;8527;49.740;6.604;2023-05-02T20:14:06;7.95;;;3.40;;
16820;SDS011;8527;49.740;6.604;2023-05-02T20:19:06;9.95;;;3.50;;
16820;SDS011;8527;49.740;6.604;2023-05-02T20:24:10;8.43;;;3.70;;
16820;SDS011;8527;49.740;6.604;2023-05-02T20:29:08;7.63;;;3.60;;
16820;SDS011;8527;49.740;6.604;2023-05-02T20:34:06;7.03;;;3.30;;
16820;SDS011;8527;49.740;6.604;2023-05-02T20:39:05;7.47;;;3.25;;
16820;SDS011;8527;49.740;6.604;2023-05-02T20:44:06;9.90;;;3.60;;
16820;SDS011;8527;49.740;6.604;2023-05-02T20:49:04;11.85;;;4.03;;
16820;SDS011;8527;49.740;6.604;2023-05-02T20:54:03;10.63;;;3.97;;
16820;SDS011;8527;49.740;6.604;2023-05-02T20:59:02;8.77;;;3.70;;
16820;SDS011;8527;49.740;6.604;2023-05-02T21:04:03;7.85;;;4.10;;
16820;SDS011;8527;49.740;6.604;2023-05-02T21:09:01;7.90;;;3.80;;
16820;SDS011;8527;49.740;6.604;2023-05-02T21:14:03;8.55;;;3.63;;
16820;SDS011;8527;49.740;6.604;2023-05-02T21:19:04;11.93;;;3.95;;
16820;SDS011;8527;49.740;6.604;2023-05-02T21:24:06;9.00;;;3.38;;
16820;SDS011;8527;49.740;6.604;2023-05-02T21:29:05;14.20;;;4.25;;
16820;SDS011;8527;49.740;6.604;2023-05-02T21:34:07;8.55;;;3.45;;
16820;SDS011;8527;49.740;6.604;2023-05-02T21:39:05;10.65;;;4.28;;
16820;SDS011;8527;49.740;6.604;2023-05-02T21:44:04;11.05;;;4.50;;
16820;SDS011;8527;49.740;6.604;2023-05-02T21:49:02;7.90;;;4.20;;
16820;SDS011;8527;49.740;6.604;2023-05-02T21:54:08;9.00;;;4.20;;
16820;SDS011;8527;49.740;6.604;2023-05-02T21:59:09;11.70;;;4.53;;
16820;SDS011;8527;49.740;6.604;2023-05-02T22:04:11;8.80;;;4.25;;
16820;SDS011;8527;49.740;6.604;2023-05-02T22:09:10;12.73;;;4.05;;
16820;SDS011;8527;49.740;6.604;2023-05-02T22:14:08;7.72;;;4.03;;
16820;SDS011;8527;49.740;6.604;2023-05-02T22:19:11;9.20;;;3.92;;
16820;SDS011;8527;49.740;6.604;2023-05-02T22:24:11;7.20;;;3.80;;
16820;SDS011;8527;49.740;6.604;2023-05-02T22:29:14;13.25;;;4.68;;
16820;SDS011;8527;49.740;6.604;2023-05-02T22:34:15;7.28;;;3.65;;
16820;SDS011;8527;49.740;6.604;2023-05-02T22:39:19;8.10;;;4.05;;
16820;SDS011;8527;49.740;6.604;2023-05-02T22:44:20;10.88;;;4.95;;
16820;SDS011;8527;49.740;6.604;2023-05-02T22:49:30;6.95;;;4.57;;
16820;SDS011;8527;49.740;6.604;2023-05-02T22:54:28;9.60;;;4.25;;
16820;SDS011;8527;49.740;6.604;2023-05-02T22:59:29;11.23;;;4.88;;
16820;SDS011;8527;49.740;6.604;2023-05-02T23:04:30;9.55;;;4.35;;
16820;SDS011;8527;49.740;6.604;2023-05-02T23:09:29;8.10;;;4.63;;
16820;SDS011;8527;49.740;6.604;2023-05-02T23:14:30;8.27;;;4.00;;
16820;SDS011;8527;49.740;6.604;2023-05-02T23:19:32;8.88;;;4.20;;
16820;SDS011;8527;49.740;6.604;2023-05-02T23:24:37;7.15;;;4.10;;
16820;SDS011;8527;49.740;6.604;2023-05-02T23:29:35;11.52;;;4.47;;
16820;SDS011;8527;49.740;6.604;2023-05-02T23:34:39;10.85;;;4.00;;
16820;SDS011;8527;49.740;6.604;2023-05-02T23:39:38;8.05;;;4.10;;
16820;SDS011;8527;49.740;6.604;2023-05-02T23:44:36;9.80;;;4.30;;
16820;SDS011;8527;49.740;6.604;2023-05-02T23:49:41;11.30;;;4.30;;
16820;SDS011;8527;49.740;6.604;2023-05-02T23:54:40;9.57;;;4.10;;
16820;SDS011;8527;49.740;6.604;2023-05-02T23:59:38;9.18;;;4.22;;
